sensor_id;sensor_type;location;lat;lon;timestamp;temperature;humidity
23597;DHT22;40226;50.874;4.394;2023-03-24T00:00:16;12.30;99.90
23597;DHT22;40226;50.874;4.394;2023-03-24T00:02:43;12.20;99.90
23597;DHT22;40226;50.874;4.394;2023-03-24T00:05:13;12.20;99.90
23597;DHT22;40226;50.874;4.394;2023-03-24T00:07:40;12.20;99.90
23597;DHT22;40226;50.874;4.394;2023-03-24T00:10:08;12.20;99.90
23597;DHT22;40226;50.874;4.394;2023-03-24T00:12:35;12.20;99.90
23597;DHT22;40226;50.874;4.394;2023-03-24T00:15:05;12.30;99.90
23597;DHT22;40226;50.874;4.394;2023-03-24T00:17:31;12.30;99.90
23597;DHT22;40226;50.874;4.394;2023-03-24T00:20:03;12.20;99.90
23597;DHT22;40226;50.874;4.394;2023-03-24T00:22:38;12.20;99.90
23597;DHT22;40226;50.874;4.394;2023-03-24T00:25:08;12.20;99.90
23597;DHT22;40226;50.874;4.394;2023-03-24T00:27:34;12.30;99.90
23597;DHT22;40226;50.874;4.394;2023-03-24T00:30:05;12.30;99.90
23597;DHT22;40226;50.874;4.394;2023-03-24T00:32:32;12.30;99.90
23597;DHT22;40226;50.874;4.394;2023-03-24T00:34:57;12.40;99.90
23597;DHT22;40226;50.874;4.394;2023-03-24T00:37:25;12.40;99.90
23597;DHT22;40226;50.874;4.394;2023-03-24T00:39:50;12.50;99.90
23597;DHT22;40226;50.874;4.394;2023-03-24T00:42:17;12.50;99.90
23597;DHT22;40226;50.874;4.394;2023-03-24T00:44:43;12.50;99.90
23597;DHT22;40226;50.874;4.394;2023-03-24T00:47:09;12.50;99.90
23597;DHT22;40226;50.874;4.394;2023-03-24T00:49:35;12.50;99.90
23597;DHT22;40226;50.874;4.394;2023-03-24T00:52:12;12.60;99.90
23597;DHT22;40226;50.874;4.394;2023-03-24T00:54:39;12.50;99.90
23597;DHT22;40226;50.874;4.394;2023-03-24T00:57:06;12.50;99.90
23597;DHT22;40226;50.874;4.394;2023-03-24T00:59:33;12.60;99.90
23597;DHT22;40226;50.874;4.394;2023-03-24T01:02:07;12.50;99.90
23597;DHT22;40226;50.874;4.394;2023-03-24T01:04:38;12.60;99.90
23597;DHT22;40226;50.874;4.394;2023-03-24T01:07:04;12.60;99.90
23597;DHT22;40226;50.874;4.394;2023-03-24T01:09:33;12.60;99.90
23597;DHT22;40226;50.874;4.394;2023-03-24T01:12:03;12.60;99.90
23597;DHT22;40226;50.874;4.394;2023-03-24T01:14:30;12.60;99.90
23597;DHT22;40226;50.874;4.394;2023-03-24T01:16:56;12.70;99.90
23597;DHT22;40226;50.874;4.394;2023-03-24T01:19:22;12.70;99.90
23597;DHT22;40226;50.874;4.394;2023-03-24T01:21:50;12.80;99.90
23597;DHT22;40226;50.874;4.394;2023-03-24T01:24:20;12.90;99.90
23597;DHT22;40226;50.874;4.394;2023-03-24T01:26:45;12.80;99.90
23597;DHT22;40226;50.874;4.394;2023-03-24T01:29:11;12.90;99.90
23597;DHT22;40226;50.874;4.394;2023-03-24T01:31:36;12.90;99.90
23597;DHT22;40226;50.874;4.394;2023-03-24T01:34:02;13.00;99.90
23597;DHT22;40226;50.874;4.394;2023-03-24T01:36:28;13.00;99.90
23597;DHT22;40226;50.874;4.394;2023-03-24T01:38:54;13.10;99.90
23597;DHT22;40226;50.874;4.394;2023-03-24T01:41:23;13.10;99.90
23597;DHT22;40226;50.874;4.394;2023-03-24T01:43:48;13.20;99.90
23597;DHT22;40226;50.874;4.394;2023-03-24T01:46:21;13.20;99.90
23597;DHT22;40226;50.874;4.394;2023-03-24T01:49:05;13.30;99.90
23597;DHT22;40226;50.874;4.394;2023-03-24T01:51:35;13.20;99.90
23597;DHT22;40226;50.874;4.394;2023-03-24T01:56:39;13.20;99.90
23597;DHT22;40226;50.874;4.394;2023-03-24T01:59:16;13.10;99.90
23597;DHT22;40226;50.874;4.394;2023-03-24T02:01:43;13.10;99.90
23597;DHT22;40226;50.874;4.394;2023-03-24T02:04:10;13.00;99.90
23597;DHT22;40226;50.874;4.394;2023-03-24T02:06:40;13.00;99.90
23597;DHT22;40226;50.874;4.394;2023-03-24T02:09:09;12.90;99.90
23597;DHT22;40226;50.874;4.394;2023-03-24T02:11:36;13.00;99.90
23597;DHT22;40226;50.874;4.394;2023-03-24T02:14:03;13.00;99.90
23597;DHT22;40226;50.874;4.394;2023-03-24T02:19:40;13.00;99.90
23597;DHT22;40226;50.874;4.394;2023-03-24T02:36:20;12.00;99.90
23597;DHT22;40226;50.874;4.394;2023-03-24T02:38:52;11.90;99.90
23597;DHT22;40226;50.874;4.394;2023-03-24T02:41:44;11.90;99.90
23597;DHT22;40226;50.874;4.394;2023-03-24T02:46:55;11.80;99.90
23597;DHT22;40226;50.874;4.394;2023-03-24T02:49:59;11.70;99.90
23597;DHT22;40226;50.874;4.394;2023-03-24T02:55:01;11.70;99.90
23597;DHT22;40226;50.874;4.394;2023-03-24T02:57:49;11.70;99.90
23597;DHT22;40226;50.874;4.394;2023-03-24T03:03:18;11.70;99.90
23597;DHT22;40226;50.874;4.394;2023-03-24T03:05:56;11.80;99.90
23597;DHT22;40226;50.874;4.394;2023-03-24T03:08:26;11.50;99.90
23597;DHT22;40226;50.874;4.394;2023-03-24T03:10:55;11.50;99.90
23597;DHT22;40226;50.874;4.394;2023-03-24T03:13:30;11.40;99.90
23597;DHT22;40226;50.874;4.394;2023-03-24T03:16:04;11.40;99.90
23597;DHT22;40226;50.874;4.394;2023-03-24T03:18:40;11.50;99.90
23597;DHT22;40226;50.874;4.394;2023-03-24T03:21:13;11.40;99.90
23597;DHT22;40226;50.874;4.394;2023-03-24T03:23:48;11.30;99.90
23597;DHT22;40226;50.874;4.394;2023-03-24T03:26:16;11.30;99.90
23597;DHT22;40226;50.874;4.394;2023-03-24T03:28:47;11.20;99.90
23597;DHT22;40226;50.874;4.394;2023-03-24T03:31:21;11.40;99.90
23597;DHT22;40226;50.874;4.394;2023-03-24T03:33:55;11.50;99.90
23597;DHT22;40226;50.874;4.394;2023-03-24T03:36:29;11.50;99.90
23597;DHT22;40226;50.874;4.394;2023-03-24T03:39:20;11.40;99.90
23597;DHT22;40226;50.874;4.394;2023-03-24T03:41:48;11.50;99.90
23597;DHT22;40226;50.874;4.394;2023-03-24T03:44:14;11.50;99.90
23597;DHT22;40226;50.874;4.394;2023-03-24T03:46:41;11.40;99.90
23597;DHT22;40226;50.874;4.394;2023-03-24T03:49:07;11.40;99.90
23597;DHT22;40226;50.874;4.394;2023-03-24T03:51:33;11.70;99.90
23597;DHT22;40226;50.874;4.394;2023-03-24T03:54:02;11.50;99.90
23597;DHT22;40226;50.874;4.394;2023-03-24T03:56:33;11.40;99.90
23597;DHT22;40226;50.874;4.394;2023-03-24T03:58:59;11.40;99.90
23597;DHT22;40226;50.874;4.394;2023-03-24T04:01:28;11.30;99.90
23597;DHT22;40226;50.874;4.394;2023-03-24T04:04:03;11.10;99.90
23597;DHT22;40226;50.874;4.394;2023-03-24T04:15:41;11.10;99.90
23597;DHT22;40226;50.874;4.394;2023-03-24T04:18:25;11.00;99.90
23597;DHT22;40226;50.874;4.394;2023-03-24T04:20:59;10.90;99.90
23597;DHT22;40226;50.874;4.394;2023-03-24T04:23:42;10.90;99.90
23597;DHT22;40226;50.874;4.394;2023-03-24T04:32:01;11.10;99.90
23597;DHT22;40226;50.874;4.394;2023-03-24T04:34:38;11.00;99.90
23597;DHT22;40226;50.874;4.394;2023-03-24T04:37:12;10.90;99.90
23597;DHT22;40226;50.874;4.394;2023-03-24T04:39:41;10.90;99.90
23597;DHT22;40226;50.874;4.394;2023-03-24T04:42:19;10.90;99.90
23597;DHT22;40226;50.874;4.394;2023-03-24T04:44:47;11.00;99.90
23597;DHT22;40226;50.874;4.394;2023-03-24T04:47:18;11.00;99.90
23597;DHT22;40226;50.874;4.394;2023-03-24T04:49:45;11.00;99.90
23597;DHT22;40226;50.874;4.394;2023-03-24T04:52:12;11.00;99.90
23597;DHT22;40226;50.874;4.394;2023-03-24T04:54:38;11.00;99.90
23597;DHT22;40226;50.874;4.394;2023-03-24T04:57:03;11.00;99.90
23597;DHT22;40226;50.874;4.394;2023-03-24T04:59:30;10.90;99.90
23597;DHT22;40226;50.874;4.394;2023-03-24T05:01:59;10.80;99.90
23597;DHT22;40226;50.874;4.394;2023-03-24T05:04:27;10.70;99.90
23597;DHT22;40226;50.874;4.394;2023-03-24T05:06:55;10.60;99.90
23597;DHT22;40226;50.874;4.394;2023-03-24T05:09:23;10.50;99.90
23597;DHT22;40226;50.874;4.394;2023-03-24T05:11:49;10.50;99.90
23597;DHT22;40226;50.874;4.394;2023-03-24T05:14:15;10.50;99.90
23597;DHT22;40226;50.874;4.394;2023-03-24T05:16:41;10.50;99.90
23597;DHT22;40226;50.874;4.394;2023-03-24T05:19:07;10.40;99.90
23597;DHT22;40226;50.874;4.394;2023-03-24T05:21:35;10.40;99.90
23597;DHT22;40226;50.874;4.394;2023-03-24T05:24:01;10.40;99.90
23597;DHT22;40226;50.874;4.394;2023-03-24T05:26:27;10.30;99.90
23597;DHT22;40226;50.874;4.394;2023-03-24T05:28:52;10.30;99.90
23597;DHT22;40226;50.874;4.394;2023-03-24T05:31:18;10.20;99.90
23597;DHT22;40226;50.874;4.394;2023-03-24T05:33:44;10.20;99.90
23597;DHT22;40226;50.874;4.394;2023-03-24T05:36:10;10.20;99.90
23597;DHT22;40226;50.874;4.394;2023-03-24T05:38:36;10.20;99.90
23597;DHT22;40226;50.874;4.394;2023-03-24T05:41:03;10.20;99.90
23597;DHT22;40226;50.874;4.394;2023-03-24T05:43:30;10.10;99.90
23597;DHT22;40226;50.874;4.394;2023-03-24T05:45:56;10.10;99.90
23597;DHT22;40226;50.874;4.394;2023-03-24T05:48:22;10.10;99.90
23597;DHT22;40226;50.874;4.394;2023-03-24T05:50:47;10.00;99.90
23597;DHT22;40226;50.874;4.394;2023-03-24T05:53:13;10.10;99.90
23597;DHT22;40226;50.874;4.394;2023-03-24T05:55:39;10.10;99.90
23597;DHT22;40226;50.874;4.394;2023-03-24T05:58:05;10.00;99.90
23597;DHT22;40226;50.874;4.394;2023-03-24T06:00:31;10.00;99.90
23597;DHT22;40226;50.874;4.394;2023-03-24T06:02:58;10.00;99.90
23597;DHT22;40226;50.874;4.394;2023-03-24T06:05:25;10.10;99.90
23597;DHT22;40226;50.874;4.394;2023-03-24T06:07:51;10.10;99.90
23597;DHT22;40226;50.874;4.394;2023-03-24T06:10:24;10.00;99.90
23597;DHT22;40226;50.874;4.394;2023-03-24T06:12:51;10.00;99.90
23597;DHT22;40226;50.874;4.394;2023-03-24T06:15:17;10.00;99.90
23597;DHT22;40226;50.874;4.394;2023-03-24T06:17:43;10.00;99.90
23597;DHT22;40226;50.874;4.394;2023-03-24T06:20:11;10.10;99.90
23597;DHT22;40226;50.874;4.394;2023-03-24T06:22:42;10.10;99.90
23597;DHT22;40226;50.874;4.394;2023-03-24T06:25:09;10.00;99.90
23597;DHT22;40226;50.874;4.394;2023-03-24T06:27:35;10.10;99.90
23597;DHT22;40226;50.874;4.394;2023-03-24T06:30:01;10.00;99.90
23597;DHT22;40226;50.874;4.394;2023-03-24T06:32:27;10.10;99.90
23597;DHT22;40226;50.874;4.394;2023-03-24T06:34:53;10.20;99.90
23597;DHT22;40226;50.874;4.394;2023-03-24T06:37:21;10.10;99.90
23597;DHT22;40226;50.874;4.394;2023-03-24T06:39:47;10.20;99.90
23597;DHT22;40226;50.874;4.394;2023-03-24T06:42:13;10.10;99.90
23597;DHT22;40226;50.874;4.394;2023-03-24T06:44:39;10.10;99.90
23597;DHT22;40226;50.874;4.394;2023-03-24T06:47:05;10.20;99.90
23597;DHT22;40226;50.874;4.394;2023-03-24T06:49:30;10.20;99.90
23597;DHT22;40226;50.874;4.394;2023-03-24T06:51:59;10.30;99.90
23597;DHT22;40226;50.874;4.394;2023-03-24T06:54:27;10.30;99.90
23597;DHT22;40226;50.874;4.394;2023-03-24T06:56:52;10.40;99.90
23597;DHT22;40226;50.874;4.394;2023-03-24T06:59:18;10.60;99.90
23597;DHT22;40226;50.874;4.394;2023-03-24T07:01:49;10.70;99.90
23597;DHT22;40226;50.874;4.394;2023-03-24T07:04:15;10.80;99.90
23597;DHT22;40226;50.874;4.394;2023-03-24T07:06:40;10.70;99.90
23597;DHT22;40226;50.874;4.394;2023-03-24T07:09:07;10.70;99.90
23597;DHT22;40226;50.874;4.394;2023-03-24T07:11:32;10.60;99.90
23597;DHT22;40226;50.874;4.394;2023-03-24T07:13:58;10.60;99.90
23597;DHT22;40226;50.874;4.394;2023-03-24T07:16:24;10.60;99.90
23597;DHT22;40226;50.874;4.394;2023-03-24T07:18:49;10.60;99.90
23597;DHT22;40226;50.874;4.394;2023-03-24T07:21:16;10.70;99.90
23597;DHT22;40226;50.874;4.394;2023-03-24T07:23:43;10.80;99.90
23597;DHT22;40226;50.874;4.394;2023-03-24T07:26:09;10.80;99.90
23597;DHT22;40226;50.874;4.394;2023-03-24T07:28:36;10.90;99.90
23597;DHT22;40226;50.874;4.394;2023-03-24T07:31:03;10.90;99.90
23597;DHT22;40226;50.874;4.394;2023-03-24T07:33:30;10.90;99.90
23597;DHT22;40226;50.874;4.394;2023-03-24T07:35:56;10.90;99.90
23597;DHT22;40226;50.874;4.394;2023-03-24T07:38:23;10.90;99.90
23597;DHT22;40226;50.874;4.394;2023-03-24T07:40:49;11.00;99.90
23597;DHT22;40226;50.874;4.394;2023-03-24T07:43:15;11.10;99.90
23597;DHT22;40226;50.874;4.394;2023-03-24T07:45:43;11.10;99.90
23597;DHT22;40226;50.874;4.394;2023-03-24T07:48:10;11.20;99.90
23597;DHT22;40226;50.874;4.394;2023-03-24T07:50:35;11.10;99.90
23597;DHT22;40226;50.874;4.394;2023-03-24T07:53:03;11.10;99.90
23597;DHT22;40226;50.874;4.394;2023-03-24T07:55:29;11.20;99.90
23597;DHT22;40226;50.874;4.394;2023-03-24T07:57:54;11.20;99.90
23597;DHT22;40226;50.874;4.394;2023-03-24T08:00:21;11.30;99.90
23597;DHT22;40226;50.874;4.394;2023-03-24T08:02:50;11.30;99.90
23597;DHT22;40226;50.874;4.394;2023-03-24T08:05:17;11.30;99.90
23597;DHT22;40226;50.874;4.394;2023-03-24T08:07:45;11.30;99.90
23597;DHT22;40226;50.874;4.394;2023-03-24T08:10:22;11.30;99.90
23597;DHT22;40226;50.874;4.394;2023-03-24T08:12:49;11.20;99.90
23597;DHT22;40226;50.874;4.394;2023-03-24T08:15:15;11.20;99.90
23597;DHT22;40226;50.874;4.394;2023-03-24T08:17:42;11.20;99.90
23597;DHT22;40226;50.874;4.394;2023-03-24T08:20:09;11.30;99.90
23597;DHT22;40226;50.874;4.394;2023-03-24T08:22:44;11.30;99.90
23597;DHT22;40226;50.874;4.394;2023-03-24T08:25:17;11.30;99.90
23597;DHT22;40226;50.874;4.394;2023-03-24T08:27:43;11.40;99.90
23597;DHT22;40226;50.874;4.394;2023-03-24T08:30:12;11.50;99.90
23597;DHT22;40226;50.874;4.394;2023-03-24T08:32:50;11.50;99.90
23597;DHT22;40226;50.874;4.394;2023-03-24T08:35:20;11.60;99.90
23597;DHT22;40226;50.874;4.394;2023-03-24T08:37:46;11.60;99.90
23597;DHT22;40226;50.874;4.394;2023-03-24T08:40:14;11.60;99.90
23597;DHT22;40226;50.874;4.394;2023-03-24T08:42:46;11.70;99.90
23597;DHT22;40226;50.874;4.394;2023-03-24T08:45:13;11.70;99.90
23597;DHT22;40226;50.874;4.394;2023-03-24T08:47:40;11.70;99.90
23597;DHT22;40226;50.874;4.394;2023-03-24T08:50:07;11.80;99.90
23597;DHT22;40226;50.874;4.394;2023-03-24T08:52:33;11.90;99.90
23597;DHT22;40226;50.874;4.394;2023-03-24T08:55:00;11.90;99.90
23597;DHT22;40226;50.874;4.394;2023-03-24T08:57:26;11.90;99.90
23597;DHT22;40226;50.874;4.394;2023-03-24T08:59:51;12.00;99.90
23597;DHT22;40226;50.874;4.394;2023-03-24T09:02:17;12.10;99.90
23597;DHT22;40226;50.874;4.394;2023-03-24T09:04:43;12.20;99.90
23597;DHT22;40226;50.874;4.394;2023-03-24T09:07:10;12.20;99.90
23597;DHT22;40226;50.874;4.394;2023-03-24T09:09:36;12.40;99.90
23597;DHT22;40226;50.874;4.394;2023-03-24T09:12:03;12.30;99.90
23597;DHT22;40226;50.874;4.394;2023-03-24T09:14:29;12.30;99.90
23597;DHT22;40226;50.874;4.394;2023-03-24T09:16:55;12.40;99.90
23597;DHT22;40226;50.874;4.394;2023-03-24T09:19:21;12.50;99.90
23597;DHT22;40226;50.874;4.394;2023-03-24T09:21:47;12.50;99.90
23597;DHT22;40226;50.874;4.394;2023-03-24T09:24:13;12.60;99.90
23597;DHT22;40226;50.874;4.394;2023-03-24T09:26:39;12.50;99.90
23597;DHT22;40226;50.874;4.394;2023-03-24T09:29:05;12.60;99.90
23597;DHT22;40226;50.874;4.394;2023-03-24T09:31:31;12.70;99.90
23597;DHT22;40226;50.874;4.394;2023-03-24T09:33:57;12.70;99.90
23597;DHT22;40226;50.874;4.394;2023-03-24T09:36:24;12.80;99.90
23597;DHT22;40226;50.874;4.394;2023-03-24T09:38:49;12.80;99.90
23597;DHT22;40226;50.874;4.394;2023-03-24T09:41:21;12.90;99.90
23597;DHT22;40226;50.874;4.394;2023-03-24T09:43:55;13.10;99.90
23597;DHT22;40226;50.874;4.394;2023-03-24T09:48:56;13.10;94.00
23597;DHT22;40226;50.874;4.394;2023-03-24T09:51:37;13.00;95.10
23597;DHT22;40226;50.874;4.394;2023-03-24T09:54:30;13.00;95.50
23597;DHT22;40226;50.874;4.394;2023-03-24T09:56:58;12.80;99.90
23597;DHT22;40226;50.874;4.394;2023-03-24T10:01:53;13.00;99.90
23597;DHT22;40226;50.874;4.394;2023-03-24T10:04:21;13.30;89.30
23597;DHT22;40226;50.874;4.394;2023-03-24T10:06:47;13.50;75.50
23597;DHT22;40226;50.874;4.394;2023-03-24T10:09:30;13.50;73.00
23597;DHT22;40226;50.874;4.394;2023-03-24T10:14:48;13.40;1.00
23597;DHT22;40226;50.874;4.394;2023-03-24T10:17:26;13.20;1.00
23597;DHT22;40226;50.874;4.394;2023-03-24T10:20:19;13.10;1.00
23597;DHT22;40226;50.874;4.394;2023-03-24T10:22:58;13.50;1.00
23597;DHT22;40226;50.874;4.394;2023-03-24T10:25:44;13.40;1.00
23597;DHT22;40226;50.874;4.394;2023-03-24T10:31:03;13.60;1.00
23597;DHT22;40226;50.874;4.394;2023-03-24T10:33:29;13.70;1.00
23597;DHT22;40226;50.874;4.394;2023-03-24T10:36:11;13.80;99.90
23597;DHT22;40226;50.874;4.394;2023-03-24T10:38:39;13.60;99.90
23597;DHT22;40226;50.874;4.394;2023-03-24T10:41:08;13.80;99.90
23597;DHT22;40226;50.874;4.394;2023-03-24T10:43:37;13.80;99.90
23597;DHT22;40226;50.874;4.394;2023-03-24T10:46:03;13.80;99.90
23597;DHT22;40226;50.874;4.394;2023-03-24T10:51:32;13.50;1.00
23597;DHT22;40226;50.874;4.394;2023-03-24T10:54:17;13.40;1.00
23597;DHT22;40226;50.874;4.394;2023-03-24T10:57:12;13.50;2.90
23597;DHT22;40226;50.874;4.394;2023-03-24T11:02:04;14.10;1.00
23597;DHT22;40226;50.874;4.394;2023-03-24T11:04:38;14.50;99.90
23597;DHT22;40226;50.874;4.394;2023-03-24T11:07:16;14.40;99.90
23597;DHT22;40226;50.874;4.394;2023-03-24T11:12:33;14.20;99.90
23597;DHT22;40226;50.874;4.394;2023-03-24T11:15:26;14.30;99.90
23597;DHT22;40226;50.874;4.394;2023-03-24T11:17:58;14.20;99.90
23597;DHT22;40226;50.874;4.394;2023-03-24T11:20:34;14.00;99.90
23597;DHT22;40226;50.874;4.394;2023-03-24T11:23:29;14.10;1.00
23597;DHT22;40226;50.874;4.394;2023-03-24T11:26:29;14.10;99.90
23597;DHT22;40226;50.874;4.394;2023-03-24T11:28:50;14.70;99.90
23597;DHT22;40226;50.874;4.394;2023-03-24T11:31:28;14.80;99.90
23597;DHT22;40226;50.874;4.394;2023-03-24T11:34:18;15.20;99.90
23597;DHT22;40226;50.874;4.394;2023-03-24T11:47:28;14.90;99.90
23597;DHT22;40226;50.874;4.394;2023-03-24T11:52:33;16.00;99.90
23597;DHT22;40226;50.874;4.394;2023-03-24T11:55:03;16.50;99.90
23597;DHT22;40226;50.874;4.394;2023-03-24T12:06:01;16.20;99.90
23597;DHT22;40226;50.874;4.394;2023-03-24T12:17:23;15.80;99.90
23597;DHT22;40226;50.874;4.394;2023-03-24T12:20:15;16.00;99.90
23597;DHT22;40226;50.874;4.394;2023-03-24T12:28:38;13.80;99.90
23597;DHT22;40226;50.874;4.394;2023-03-24T12:39:12;13.90;95.70
23597;DHT22;40226;50.874;4.394;2023-03-24T12:44:48;13.80;99.90
23597;DHT22;40226;50.874;4.394;2023-03-24T12:58:19;14.10;30.50
23597;DHT22;40226;50.874;4.394;2023-03-24T13:01:10;14.00;7.50
23597;DHT22;40226;50.874;4.394;2023-03-24T13:03:52;14.00;12.30
23597;DHT22;40226;50.874;4.394;2023-03-24T13:06:28;13.80;1.00
23597;DHT22;40226;50.874;4.394;2023-03-24T13:09:20;13.40;57.40
23597;DHT22;40226;50.874;4.394;2023-03-24T13:14:21;12.40;99.90
23597;DHT22;40226;50.874;4.394;2023-03-24T13:16:48;12.20;99.90
23597;DHT22;40226;50.874;4.394;2023-03-24T13:19:23;12.00;99.90
23597;DHT22;40226;50.874;4.394;2023-03-24T13:21:51;12.00;99.90
23597;DHT22;40226;50.874;4.394;2023-03-24T13:24:18;12.80;99.90
23597;DHT22;40226;50.874;4.394;2023-03-24T13:27:13;13.70;99.90
23597;DHT22;40226;50.874;4.394;2023-03-24T13:33:10;15.00;38.30
23597;DHT22;40226;50.874;4.394;2023-03-24T13:36:24;14.90;99.90
23597;DHT22;40226;50.874;4.394;2023-03-24T13:38:56;14.70;43.20
23597;DHT22;40226;50.874;4.394;2023-03-24T13:41:24;15.20;14.60
23597;DHT22;40226;50.874;4.394;2023-03-24T13:44:05;15.40;99.90
23597;DHT22;40226;50.874;4.394;2023-03-24T13:46:35;15.80;99.90
23597;DHT22;40226;50.874;4.394;2023-03-24T13:49:05;15.60;99.90
23597;DHT22;40226;50.874;4.394;2023-03-24T13:51:34;14.70;6.60
23597;DHT22;40226;50.874;4.394;2023-03-24T13:54:23;14.20;37.20
23597;DHT22;40226;50.874;4.394;2023-03-24T13:57:06;13.70;64.40
23597;DHT22;40226;50.874;4.394;2023-03-24T14:05:29;14.80;67.20
23597;DHT22;40226;50.874;4.394;2023-03-24T14:10:45;15.20;11.20
23597;DHT22;40226;50.874;4.394;2023-03-24T14:23:41;14.00;62.40
23597;DHT22;40226;50.874;4.394;2023-03-24T14:26:13;14.30;56.90
23597;DHT22;40226;50.874;4.394;2023-03-24T14:28:46;14.00;71.70
23597;DHT22;40226;50.874;4.394;2023-03-24T14:33:43;13.80;73.90
23597;DHT22;40226;50.874;4.394;2023-03-24T14:36:09;13.90;78.50
23597;DHT22;40226;50.874;4.394;2023-03-24T14:38:43;14.10;63.80
23597;DHT22;40226;50.874;4.394;2023-03-24T14:41:25;14.70;52.10
23597;DHT22;40226;50.874;4.394;2023-03-24T14:43:53;16.10;1.00
23597;DHT22;40226;50.874;4.394;2023-03-24T14:46:33;16.70;1.00
23597;DHT22;40226;50.874;4.394;2023-03-24T14:49:28;16.90;1.00
23597;DHT22;40226;50.874;4.394;2023-03-24T14:52:31;16.90;1.00
23597;DHT22;40226;50.874;4.394;2023-03-24T14:57:52;16.10;1.00
23597;DHT22;40226;50.874;4.394;2023-03-24T15:00:26;16.80;1.00
23597;DHT22;40226;50.874;4.394;2023-03-24T15:03:01;17.70;1.00
23597;DHT22;40226;50.874;4.394;2023-03-24T15:16:05;17.60;99.90
23597;DHT22;40226;50.874;4.394;2023-03-24T15:18:32;17.40;1.00
23597;DHT22;40226;50.874;4.394;2023-03-24T15:20:58;16.70;1.00
23597;DHT22;40226;50.874;4.394;2023-03-24T15:23:25;16.40;1.00
23597;DHT22;40226;50.874;4.394;2023-03-24T15:25:54;16.30;99.90
23597;DHT22;40226;50.874;4.394;2023-03-24T15:28:25;16.40;23.00
23597;DHT22;40226;50.874;4.394;2023-03-24T15:30:52;16.70;1.00
23597;DHT22;40226;50.874;4.394;2023-03-24T15:33:20;17.00;1.00
23597;DHT22;40226;50.874;4.394;2023-03-24T15:35:46;16.30;1.00
23597;DHT22;40226;50.874;4.394;2023-03-24T15:38:20;15.60;99.90
23597;DHT22;40226;50.874;4.394;2023-03-24T15:41:07;15.30;99.90
23597;DHT22;40226;50.874;4.394;2023-03-24T15:43:40;15.00;1.00
23597;DHT22;40226;50.874;4.394;2023-03-24T15:46:24;14.80;1.00
23597;DHT22;40226;50.874;4.394;2023-03-24T15:48:51;14.70;1.00
23597;DHT22;40226;50.874;4.394;2023-03-24T15:51:17;14.70;1.00
23597;DHT22;40226;50.874;4.394;2023-03-24T15:53:53;14.80;1.00
23597;DHT22;40226;50.874;4.394;2023-03-24T15:56:26;14.50;1.00
23597;DHT22;40226;50.874;4.394;2023-03-24T15:58:55;14.40;1.00
23597;DHT22;40226;50.874;4.394;2023-03-24T16:01:26;14.20;1.00
23597;DHT22;40226;50.874;4.394;2023-03-24T16:03:55;14.20;1.00
23597;DHT22;40226;50.874;4.394;2023-03-24T16:06:27;14.10;1.00
23597;DHT22;40226;50.874;4.394;2023-03-24T16:08:57;13.90;1.00
23597;DHT22;40226;50.874;4.394;2023-03-24T16:11:31;13.90;1.00
23597;DHT22;40226;50.874;4.394;2023-03-24T16:13:57;13.70;87.10
23597;DHT22;40226;50.874;4.394;2023-03-24T16:16:26;13.30;99.90
23597;DHT22;40226;50.874;4.394;2023-03-24T16:18:53;13.00;99.90
23597;DHT22;40226;50.874;4.394;2023-03-24T16:21:24;12.80;99.90
23597;DHT22;40226;50.874;4.394;2023-03-24T16:23:53;12.80;99.90
23597;DHT22;40226;50.874;4.394;2023-03-24T16:26:28;12.80;99.90
23597;DHT22;40226;50.874;4.394;2023-03-24T16:29:20;12.90;99.90
23597;DHT22;40226;50.874;4.394;2023-03-24T16:31:46;13.00;99.90
23597;DHT22;40226;50.874;4.394;2023-03-24T16:34:16;13.00;99.90
23597;DHT22;40226;50.874;4.394;2023-03-24T16:36:46;13.10;99.90
23597;DHT22;40226;50.874;4.394;2023-03-24T16:39:15;13.30;99.90
23597;DHT22;40226;50.874;4.394;2023-03-24T16:41:41;13.30;99.90
23597;DHT22;40226;50.874;4.394;2023-03-24T16:44:07;13.30;99.10
23597;DHT22;40226;50.874;4.394;2023-03-24T16:46:33;13.30;99.90
23597;DHT22;40226;50.874;4.394;2023-03-24T16:49:00;13.30;92.70
23597;DHT22;40226;50.874;4.394;2023-03-24T16:51:26;13.30;92.60
23597;DHT22;40226;50.874;4.394;2023-03-24T16:53:54;13.40;91.00
23597;DHT22;40226;50.874;4.394;2023-03-24T16:56:20;13.30;93.00
23597;DHT22;40226;50.874;4.394;2023-03-24T16:58:47;12.90;99.90
23597;DHT22;40226;50.874;4.394;2023-03-24T17:01:17;12.50;99.90
23597;DHT22;40226;50.874;4.394;2023-03-24T17:03:54;12.30;99.90
23597;DHT22;40226;50.874;4.394;2023-03-24T17:06:21;12.30;99.90
23597;DHT22;40226;50.874;4.394;2023-03-24T17:08:47;12.20;99.90
23597;DHT22;40226;50.874;4.394;2023-03-24T17:11:15;12.20;99.90
23597;DHT22;40226;50.874;4.394;2023-03-24T17:13:41;12.10;99.90
23597;DHT22;40226;50.874;4.394;2023-03-24T17:16:10;11.90;99.90
23597;DHT22;40226;50.874;4.394;2023-03-24T17:18:36;11.70;99.90
23597;DHT22;40226;50.874;4.394;2023-03-24T17:21:12;11.60;99.90
23597;DHT22;40226;50.874;4.394;2023-03-24T17:23:39;11.40;99.90
23597;DHT22;40226;50.874;4.394;2023-03-24T17:26:05;11.30;99.90
23597;DHT22;40226;50.874;4.394;2023-03-24T17:28:31;11.20;99.90
23597;DHT22;40226;50.874;4.394;2023-03-24T17:30:56;11.20;99.90
23597;DHT22;40226;50.874;4.394;2023-03-24T17:33:22;11.20;99.90
23597;DHT22;40226;50.874;4.394;2023-03-24T17:35:47;11.20;99.90
23597;DHT22;40226;50.874;4.394;2023-03-24T17:38:14;11.10;99.90
23597;DHT22;40226;50.874;4.394;2023-03-24T17:40:41;11.10;99.90
23597;DHT22;40226;50.874;4.394;2023-03-24T17:43:07;11.10;99.90
23597;DHT22;40226;50.874;4.394;2023-03-24T17:45:33;11.10;99.90
23597;DHT22;40226;50.874;4.394;2023-03-24T17:47:58;11.20;99.90
23597;DHT22;40226;50.874;4.394;2023-03-24T17:50:25;11.10;99.90
23597;DHT22;40226;50.874;4.394;2023-03-24T17:52:51;11.10;99.90
23597;DHT22;40226;50.874;4.394;2023-03-24T17:55:16;11.10;99.90
23597;DHT22;40226;50.874;4.394;2023-03-24T17:57:43;11.10;99.90
23597;DHT22;40226;50.874;4.394;2023-03-24T18:00:10;11.10;99.90
23597;DHT22;40226;50.874;4.394;2023-03-24T18:02:38;11.10;99.90
23597;DHT22;40226;50.874;4.394;2023-03-24T18:05:04;11.10;99.90
23597;DHT22;40226;50.874;4.394;2023-03-24T18:07:31;11.00;99.90
23597;DHT22;40226;50.874;4.394;2023-03-24T18:09:57;10.90;99.90
23597;DHT22;40226;50.874;4.394;2023-03-24T18:12:23;10.90;99.90
23597;DHT22;40226;50.874;4.394;2023-03-24T18:14:49;10.90;99.90
23597;DHT22;40226;50.874;4.394;2023-03-24T18:17:14;10.90;99.90
23597;DHT22;40226;50.874;4.394;2023-03-24T18:19:40;10.80;99.90
23597;DHT22;40226;50.874;4.394;2023-03-24T18:22:06;10.80;99.90
23597;DHT22;40226;50.874;4.394;2023-03-24T18:24:32;10.70;99.90
23597;DHT22;40226;50.874;4.394;2023-03-24T18:26:57;10.70;99.90
23597;DHT22;40226;50.874;4.394;2023-03-24T18:29:23;10.70;99.90
23597;DHT22;40226;50.874;4.394;2023-03-24T18:31:49;10.70;99.90